sensor_id;sensor_type;location;lat;lon;timestamp;P1;durP1;ratioP1;P2;durP2;ratioP2
30824;SDS011;17550;45.486;12.222;2023-05-16T00:00:15;6.78;;;3.03;;
30824;SDS011;17550;45.486;12.222;2023-05-16T00:02:41;4.43;;;2.55;;
30824;SDS011;17550;45.486;12.222;2023-05-16T00:05:07;8.00;;;2.58;;
30824;SDS011;17550;45.486;12.222;2023-05-16T00:07:34;3.40;;;2.50;;
30824;SDS011;17550;45.486;12.222;2023-05-16T00:10:00;5.22;;;2.65;;
30824;SDS011;17550;45.486;12.222;2023-05-16T00:12:27;4.30;;;2.67;;
30824;SDS011;17550;45.486;12.222;2023-05-16T00:14:53;8.02;;;2.35;;
30824;SDS011;17550;45.486;12.222;2023-05-16T00:17:19;3.00;;;2.22;;
30824;SDS011;17550;45.486;12.222;2023-05-16T00:19:46;4.35;;;2.15;;
30824;SDS011;17550;45.486;12.222;2023-05-16T00:22:25;3.97;;;2.50;;
30824;SDS011;17550;45.486;12.222;2023-05-16T00:24:51;3.10;;;2.20;;
30824;SDS011;17550;45.486;12.222;2023-05-16T00:27:17;3.92;;;2.22;;
30824;SDS011;17550;45.486;12.222;2023-05-16T00:29:43;5.20;;;2.50;;
30824;SDS011;17550;45.486;12.222;2023-05-16T00:32:08;3.22;;;2.10;;
30824;SDS011;17550;45.486;12.222;2023-05-16T00:34:34;5.95;;;2.22;;
30824;SDS011;17550;45.486;12.222;2023-05-16T00:37:00;5.20;;;2.05;;
30824;SDS011;17550;45.486;12.222;2023-05-16T00:39:26;3.10;;;2.00;;
30824;SDS011;17550;45.486;12.222;2023-05-16T00:41:51;7.18;;;2.28;;
30824;SDS011;17550;45.486;12.222;2023-05-16T00:44:17;2.38;;;1.90;;
30824;SDS011;17550;45.486;12.222;2023-05-16T00:46:43;4.07;;;2.10;;
30824;SDS011;17550;45.486;12.222;2023-05-16T00:49:09;4.45;;;1.95;;
30824;SDS011;17550;45.486;12.222;2023-05-16T00:51:36;4.70;;;2.00;;
30824;SDS011;17550;45.486;12.222;2023-05-16T00:54:04;4.97;;;1.80;;
30824;SDS011;17550;45.486;12.222;2023-05-16T00:56:30;3.05;;;1.48;;
30824;SDS011;17550;45.486;12.222;2023-05-16T00:58:57;2.08;;;1.30;;
30824;SDS011;17550;45.486;12.222;2023-05-16T01:01:24;3.55;;;1.40;;
30824;SDS011;17550;45.486;12.222;2023-05-16T01:03:51;2.03;;;1.50;;
30824;SDS011;17550;45.486;12.222;2023-05-16T01:06:18;2.65;;;1.50;;
30824;SDS011;17550;45.486;12.222;2023-05-16T01:08:44;2.10;;;1.20;;
30824;SDS011;17550;45.486;12.222;2023-05-16T01:11:11;2.15;;;1.15;;
30824;SDS011;17550;45.486;12.222;2023-05-16T01:24:33;1.20;;;1.05;;
30824;SDS011;17550;45.486;12.222;2023-05-16T01:27:05;2.90;;;1.42;;
30824;SDS011;17550;45.486;12.222;2023-05-16T01:29:32;2.58;;;1.45;;
30824;SDS011;17550;45.486;12.222;2023-05-16T01:31:58;2.75;;;1.10;;
30824;SDS011;17550;45.486;12.222;2023-05-16T01:34:24;3.35;;;1.20;;
30824;SDS011;17550;45.486;12.222;2023-05-16T01:39:56;2.92;;;1.40;;
30824;SDS011;17550;45.486;12.222;2023-05-16T01:42:32;4.38;;;1.48;;
30824;SDS011;17550;45.486;12.222;2023-05-16T01:45:05;2.22;;;1.48;;
30824;SDS011;17550;45.486;12.222;2023-05-16T01:47:38;2.67;;;1.30;;
30824;SDS011;17550;45.486;12.222;2023-05-16T01:50:09;4.63;;;1.40;;
30824;SDS011;17550;45.486;12.222;2023-05-16T01:55:13;1.97;;;1.20;;
30824;SDS011;17550;45.486;12.222;2023-05-16T01:57:43;3.88;;;1.35;;
30824;SDS011;17550;45.486;12.222;2023-05-16T02:00:10;2.00;;;1.20;;
30824;SDS011;17550;45.486;12.222;2023-05-16T02:02:37;2.67;;;1.35;;
30824;SDS011;17550;45.486;12.222;2023-05-16T02:05:03;5.60;;;0.93;;
30824;SDS011;17550;45.486;12.222;2023-05-16T02:07:28;3.60;;;1.27;;
30824;SDS011;17550;45.486;12.222;2023-05-16T02:09:54;6.80;;;1.15;;
30824;SDS011;17550;45.486;12.222;2023-05-16T02:12:20;7.35;;;1.42;;
30824;SDS011;17550;45.486;12.222;2023-05-16T02:14:46;21.13;;;1.40;;
30824;SDS011;17550;45.486;12.222;2023-05-16T02:17:11;4.05;;;1.48;;
30824;SDS011;17550;45.486;12.222;2023-05-16T02:19:37;9.48;;;1.30;;
30824;SDS011;17550;45.486;12.222;2023-05-16T02:22:03;10.68;;;1.20;;
30824;SDS011;17550;45.486;12.222;2023-05-16T02:24:28;8.43;;;1.35;;
30824;SDS011;17550;45.486;12.222;2023-05-16T02:26:54;8.45;;;1.10;;
30824;SDS011;17550;45.486;12.222;2023-05-16T02:29:20;7.40;;;1.67;;
30824;SDS011;17550;45.486;12.222;2023-05-16T02:31:45;4.18;;;1.20;;
30824;SDS011;17550;45.486;12.222;2023-05-16T02:34:11;4.07;;;1.42;;
30824;SDS011;17550;45.486;12.222;2023-05-16T02:36:37;3.25;;;1.13;;
30824;SDS011;17550;45.486;12.222;2023-05-16T02:39:02;5.22;;;1.35;;
30824;SDS011;17550;45.486;12.222;2023-05-16T02:41:28;3.85;;;1.40;;
30824;SDS011;17550;45.486;12.222;2023-05-16T02:43:55;10.40;;;1.55;;
30824;SDS011;17550;45.486;12.222;2023-05-16T02:46:25;2.63;;;1.00;;
30824;SDS011;17550;45.486;12.222;2023-05-16T02:48:55;3.08;;;1.52;;
30824;SDS011;17550;45.486;12.222;2023-05-16T02:51:22;5.50;;;1.80;;
30824;SDS011;17550;45.486;12.222;2023-05-16T02:53:49;1.50;;;1.27;;
30824;SDS011;17550;45.486;12.222;2023-05-16T02:56:16;3.85;;;1.40;;
30824;SDS011;17550;45.486;12.222;2023-05-16T02:58:42;6.53;;;1.27;;
30824;SDS011;17550;45.486;12.222;2023-05-16T03:01:09;1.83;;;1.08;;
30824;SDS011;17550;45.486;12.222;2023-05-16T03:03:35;5.28;;;0.88;;
30824;SDS011;17550;45.486;12.222;2023-05-16T03:06:01;4.47;;;1.27;;
30824;SDS011;17550;45.486;12.222;2023-05-16T03:08:27;1.35;;;1.10;;
30824;SDS011;17550;45.486;12.222;2023-05-16T03:10:53;4.10;;;1.10;;
30824;SDS011;17550;45.486;12.222;2023-05-16T03:13:19;1.52;;;1.27;;
30824;SDS011;17550;45.486;12.222;2023-05-16T03:15:44;3.15;;;1.30;;
30824;SDS011;17550;45.486;12.222;2023-05-16T03:18:10;4.00;;;1.20;;
30824;SDS011;17550;45.486;12.222;2023-05-16T03:20:36;3.20;;;1.67;;
30824;SDS011;17550;45.486;12.222;2023-05-16T03:23:02;3.55;;;1.35;;
30824;SDS011;17550;45.486;12.222;2023-05-16T03:25:31;1.27;;;1.10;;
30824;SDS011;17550;45.486;12.222;2023-05-16T03:27:57;3.08;;;1.33;;
30824;SDS011;17550;45.486;12.222;2023-05-16T03:30:23;6.15;;;1.38;;
30824;SDS011;17550;45.486;12.222;2023-05-16T03:32:50;1.30;;;1.20;;
30824;SDS011;17550;45.486;12.222;2023-05-16T03:35:16;3.08;;;1.30;;
30824;SDS011;17550;45.486;12.222;2023-05-16T03:37:42;5.05;;;1.45;;
30824;SDS011;17550;45.486;12.222;2023-05-16T03:40:08;1.83;;;1.27;;
30824;SDS011;17550;45.486;12.222;2023-05-16T03:42:35;4.85;;;2.15;;
30824;SDS011;17550;45.486;12.222;2023-05-16T03:45:01;2.03;;;1.33;;
30824;SDS011;17550;45.486;12.222;2023-05-16T03:47:27;8.60;;;1.75;;
30824;SDS011;17550;45.486;12.222;2023-05-16T03:49:55;2.05;;;1.67;;
30824;SDS011;17550;45.486;12.222;2023-05-16T03:52:20;2.58;;;1.42;;
30824;SDS011;17550;45.486;12.222;2023-05-16T03:54:46;2.55;;;1.45;;
30824;SDS011;17550;45.486;12.222;2023-05-16T03:57:12;1.85;;;1.38;;
30824;SDS011;17550;45.486;12.222;2023-05-16T03:59:38;3.80;;;1.40;;
30824;SDS011;17550;45.486;12.222;2023-05-16T04:02:03;2.63;;;1.83;;
30824;SDS011;17550;45.486;12.222;2023-05-16T04:04:30;2.25;;;1.30;;
30824;SDS011;17550;45.486;12.222;2023-05-16T04:06:55;3.08;;;1.50;;
30824;SDS011;17550;45.486;12.222;2023-05-16T04:09:21;3.17;;;1.45;;
30824;SDS011;17550;45.486;12.222;2023-05-16T04:11:47;1.80;;;1.38;;
30824;SDS011;17550;45.486;12.222;2023-05-16T04:14:13;3.85;;;1.80;;
30824;SDS011;17550;45.486;12.222;2023-05-16T04:16:39;3.88;;;1.40;;
30824;SDS011;17550;45.486;12.222;2023-05-16T04:19:05;3.10;;;1.60;;
30824;SDS011;17550;45.486;12.222;2023-05-16T04:21:31;7.10;;;1.92;;
30824;SDS011;17550;45.486;12.222;2023-05-16T04:23:57;3.30;;;1.50;;
30824;SDS011;17550;45.486;12.222;2023-05-16T04:26:23;6.63;;;2.00;;
30824;SDS011;17550;45.486;12.222;2023-05-16T04:28:49;5.28;;;2.10;;
30824;SDS011;17550;45.486;12.222;2023-05-16T04:31:15;2.83;;;1.80;;
30824;SDS011;17550;45.486;12.222;2023-05-16T04:33:41;3.78;;;2.03;;
30824;SDS011;17550;45.486;12.222;2023-05-16T04:36:07;2.55;;;1.90;;
30824;SDS011;17550;45.486;12.222;2023-05-16T04:38:33;3.67;;;1.95;;
30824;SDS011;17550;45.486;12.222;2023-05-16T04:40:59;3.25;;;2.00;;
30824;SDS011;17550;45.486;12.222;2023-05-16T04:43:25;3.40;;;2.25;;
30824;SDS011;17550;45.486;12.222;2023-05-16T04:45:51;2.47;;;2.03;;
30824;SDS011;17550;45.486;12.222;2023-05-16T04:48:22;6.25;;;2.50;;
30824;SDS011;17550;45.486;12.222;2023-05-16T04:50:48;3.22;;;2.53;;
30824;SDS011;17550;45.486;12.222;2023-05-16T04:53:14;4.15;;;2.28;;
30824;SDS011;17550;45.486;12.222;2023-05-16T04:55:39;4.40;;;2.40;;
30824;SDS011;17550;45.486;12.222;2023-05-16T04:58:05;4.00;;;2.97;;
30824;SDS011;17550;45.486;12.222;2023-05-16T05:00:32;7.25;;;3.17;;
30824;SDS011;17550;45.486;12.222;2023-05-16T05:02:58;4.35;;;3.30;;
30824;SDS011;17550;45.486;12.222;2023-05-16T05:05:23;4.70;;;2.88;;
30824;SDS011;17550;45.486;12.222;2023-05-16T05:07:49;3.60;;;3.00;;
30824;SDS011;17550;45.486;12.222;2023-05-16T05:10:15;3.67;;;2.70;;
30824;SDS011;17550;45.486;12.222;2023-05-16T05:12:41;6.22;;;3.33;;
30824;SDS011;17550;45.486;12.222;2023-05-16T05:15:07;7.32;;;3.28;;
30824;SDS011;17550;45.486;12.222;2023-05-16T05:17:33;4.78;;;2.92;;
30824;SDS011;17550;45.486;12.222;2023-05-16T05:19:59;10.45;;;3.15;;
30824;SDS011;17550;45.486;12.222;2023-05-16T05:22:24;8.93;;;3.00;;
30824;SDS011;17550;45.486;12.222;2023-05-16T05:24:50;3.63;;;2.75;;
30824;SDS011;17550;45.486;12.222;2023-05-16T05:27:16;5.72;;;2.92;;
30824;SDS011;17550;45.486;12.222;2023-05-16T05:29:41;4.13;;;2.63;;
30824;SDS011;17550;45.486;12.222;2023-05-16T05:32:07;8.82;;;2.88;;
30824;SDS011;17550;45.486;12.222;2023-05-16T05:34:33;4.60;;;2.70;;
30824;SDS011;17550;45.486;12.222;2023-05-16T05:36:58;6.55;;;2.90;;
30824;SDS011;17550;45.486;12.222;2023-05-16T05:39:24;5.68;;;3.30;;
30824;SDS011;17550;45.486;12.222;2023-05-16T05:41:50;7.32;;;3.38;;
30824;SDS011;17550;45.486;12.222;2023-05-16T05:44:16;4.80;;;2.53;;
30824;SDS011;17550;45.486;12.222;2023-05-16T05:46:42;3.40;;;2.53;;
30824;SDS011;17550;45.486;12.222;2023-05-16T05:49:08;3.78;;;2.38;;
30824;SDS011;17550;45.486;12.222;2023-05-16T05:51:34;8.55;;;2.63;;
30824;SDS011;17550;45.486;12.222;2023-05-16T05:54:00;4.40;;;2.17;;
30824;SDS011;17550;45.486;12.222;2023-05-16T05:56:26;2.50;;;2.00;;
30824;SDS011;17550;45.486;12.222;2023-05-16T05:58:52;2.08;;;1.70;;
30824;SDS011;17550;45.486;12.222;2023-05-16T06:01:18;3.58;;;2.15;;
30824;SDS011;17550;45.486;12.222;2023-05-16T06:03:45;4.82;;;2.80;;
30824;SDS011;17550;45.486;12.222;2023-05-16T06:06:11;3.38;;;1.80;;
30824;SDS011;17550;45.486;12.222;2023-05-16T06:08:38;2.42;;;1.90;;
30824;SDS011;17550;45.486;12.222;2023-05-16T06:11:05;2.22;;;1.75;;
30824;SDS011;17550;45.486;12.222;2023-05-16T06:13:30;3.25;;;2.13;;
30824;SDS011;17550;45.486;12.222;2023-05-16T06:15:56;2.88;;;1.90;;
30824;SDS011;17550;45.486;12.222;2023-05-16T06:18:22;5.25;;;2.00;;
30824;SDS011;17550;45.486;12.222;2023-05-16T06:20:48;3.13;;;1.83;;
30824;SDS011;17550;45.486;12.222;2023-05-16T06:23:14;4.35;;;2.15;;
30824;SDS011;17550;45.486;12.222;2023-05-16T06:25:40;3.42;;;1.70;;
30824;SDS011;17550;45.486;12.222;2023-05-16T06:28:06;9.85;;;2.40;;
30824;SDS011;17550;45.486;12.222;2023-05-16T06:30:32;3.13;;;2.33;;
30824;SDS011;17550;45.486;12.222;2023-05-16T06:32:57;6.90;;;2.17;;
30824;SDS011;17550;45.486;12.222;2023-05-16T06:35:23;6.13;;;1.92;;
30824;SDS011;17550;45.486;12.222;2023-05-16T06:37:49;4.05;;;2.35;;
30824;SDS011;17550;45.486;12.222;2023-05-16T06:40:15;2.83;;;2.05;;
30824;SDS011;17550;45.486;12.222;2023-05-16T06:42:40;5.68;;;2.22;;
30824;SDS011;17550;45.486;12.222;2023-05-16T06:45:07;7.47;;;2.33;;
30824;SDS011;17550;45.486;12.222;2023-05-16T06:47:33;4.75;;;2.55;;
30824;SDS011;17550;45.486;12.222;2023-05-16T06:49:59;5.50;;;2.28;;
30824;SDS011;17550;45.486;12.222;2023-05-16T06:52:24;6.53;;;2.60;;
30824;SDS011;17550;45.486;12.222;2023-05-16T06:54:51;5.53;;;2.60;;
30824;SDS011;17550;45.486;12.222;2023-05-16T06:57:16;3.33;;;2.38;;
30824;SDS011;17550;45.486;12.222;2023-05-16T06:59:42;5.65;;;2.75;;
30824;SDS011;17550;45.486;12.222;2023-05-16T07:02:08;7.80;;;2.95;;
30824;SDS011;17550;45.486;12.222;2023-05-16T07:04:34;3.75;;;2.30;;
30824;SDS011;17550;45.486;12.222;2023-05-16T07:07:01;8.38;;;2.58;;
30824;SDS011;17550;45.486;12.222;2023-05-16T07:09:28;6.43;;;2.55;;
30824;SDS011;17550;45.486;12.222;2023-05-16T07:11:54;5.05;;;3.15;;
30824;SDS011;17550;45.486;12.222;2023-05-16T07:14:19;7.63;;;2.78;;
30824;SDS011;17550;45.486;12.222;2023-05-16T07:16:45;12.18;;;3.08;;
30824;SDS011;17550;45.486;12.222;2023-05-16T07:19:11;8.98;;;3.30;;
30824;SDS011;17550;45.486;12.222;2023-05-16T07:21:37;7.88;;;3.13;;
30824;SDS011;17550;45.486;12.222;2023-05-16T07:24:02;5.05;;;3.20;;
30824;SDS011;17550;45.486;12.222;2023-05-16T07:26:28;5.68;;;3.55;;
30824;SDS011;17550;45.486;12.222;2023-05-16T07:28:54;9.50;;;4.25;;
30824;SDS011;17550;45.486;12.222;2023-05-16T07:31:20;9.05;;;3.33;;
30824;SDS011;17550;45.486;12.222;2023-05-16T07:33:46;6.25;;;3.00;;
30824;SDS011;17550;45.486;12.222;2023-05-16T07:36:13;8.98;;;3.03;;
30824;SDS011;17550;45.486;12.222;2023-05-16T07:38:38;4.38;;;3.00;;
30824;SDS011;17550;45.486;12.222;2023-05-16T07:41:04;7.15;;;3.38;;
30824;SDS011;17550;45.486;12.222;2023-05-16T07:43:30;10.80;;;3.17;;
30824;SDS011;17550;45.486;12.222;2023-05-16T07:45:59;6.57;;;3.30;;
30824;SDS011;17550;45.486;12.222;2023-05-16T07:48:25;5.97;;;3.13;;
30824;SDS011;17550;45.486;12.222;2023-05-16T07:50:51;6.35;;;2.97;;
30824;SDS011;17550;45.486;12.222;2023-05-16T07:53:17;6.78;;;2.88;;
30824;SDS011;17550;45.486;12.222;2023-05-16T07:55:43;4.03;;;3.17;;
30824;SDS011;17550;45.486;12.222;2023-05-16T07:58:08;4.00;;;2.88;;
30824;SDS011;17550;45.486;12.222;2023-05-16T08:00:34;4.72;;;3.10;;
30824;SDS011;17550;45.486;12.222;2023-05-16T08:03:00;9.68;;;3.13;;
30824;SDS011;17550;45.486;12.222;2023-05-16T08:05:26;8.05;;;3.20;;
30824;SDS011;17550;45.486;12.222;2023-05-16T08:07:51;8.32;;;3.42;;
30824;SDS011;17550;45.486;12.222;2023-05-16T08:10:17;5.00;;;3.20;;
30824;SDS011;17550;45.486;12.222;2023-05-16T08:12:43;5.15;;;3.03;;
30824;SDS011;17550;45.486;12.222;2023-05-16T08:15:09;4.03;;;2.80;;
30824;SDS011;17550;45.486;12.222;2023-05-16T08:17:35;6.57;;;3.15;;
30824;SDS011;17550;45.486;12.222;2023-05-16T08:20:01;5.13;;;3.30;;
30824;SDS011;17550;45.486;12.222;2023-05-16T08:22:27;4.53;;;2.92;;
30824;SDS011;17550;45.486;12.222;2023-05-16T08:24:52;5.45;;;3.90;;
30824;SDS011;17550;45.486;12.222;2023-05-16T08:27:22;10.88;;;3.80;;
30824;SDS011;17550;45.486;12.222;2023-05-16T08:29:48;8.38;;;3.38;;
30824;SDS011;17550;45.486;12.222;2023-05-16T08:32:14;5.82;;;3.88;;
30824;SDS011;17550;45.486;12.222;2023-05-16T08:34:40;6.43;;;3.47;;
30824;SDS011;17550;45.486;12.222;2023-05-16T08:37:06;5.82;;;3.28;;
30824;SDS011;17550;45.486;12.222;2023-05-16T08:39:32;7.88;;;3.58;;
30824;SDS011;17550;45.486;12.222;2023-05-16T08:41:58;7.45;;;4.15;;
30824;SDS011;17550;45.486;12.222;2023-05-16T08:44:24;7.18;;;4.07;;
30824;SDS011;17550;45.486;12.222;2023-05-16T08:46:51;6.35;;;3.70;;
30824;SDS011;17550;45.486;12.222;2023-05-16T08:49:18;7.70;;;3.75;;
30824;SDS011;17550;45.486;12.222;2023-05-16T08:51:45;8.65;;;3.78;;
30824;SDS011;17550;45.486;12.222;2023-05-16T08:54:12;6.63;;;3.97;;
30824;SDS011;17550;45.486;12.222;2023-05-16T08:56:42;6.70;;;3.80;;
30824;SDS011;17550;45.486;12.222;2023-05-16T08:59:09;7.88;;;3.92;;
30824;SDS011;17550;45.486;12.222;2023-05-16T09:01:36;7.15;;;4.18;;
30824;SDS011;17550;45.486;12.222;2023-05-16T09:04:03;5.80;;;3.72;;
30824;SDS011;17550;45.486;12.222;2023-05-16T09:06:31;7.07;;;4.20;;
30824;SDS011;17550;45.486;12.222;2023-05-16T09:08:57;7.93;;;4.10;;
30824;SDS011;17550;45.486;12.222;2023-05-16T09:11:23;7.80;;;3.70;;
30824;SDS011;17550;45.486;12.222;2023-05-16T09:13:48;6.78;;;3.30;;
30824;SDS011;17550;45.486;12.222;2023-05-16T09:16:15;10.57;;;3.60;;
30824;SDS011;17550;45.486;12.222;2023-05-16T09:18:44;8.88;;;3.40;;
30824;SDS011;17550;45.486;12.222;2023-05-16T09:21:20;7.47;;;3.85;;
30824;SDS011;17550;45.486;12.222;2023-05-16T09:23:48;9.60;;;3.97;;
30824;SDS011;17550;45.486;12.222;2023-05-16T09:26:14;6.28;;;4.03;;
30824;SDS011;17550;45.486;12.222;2023-05-16T09:28:40;9.02;;;3.80;;
30824;SDS011;17550;45.486;12.222;2023-05-16T09:31:40;8.05;;;3.83;;
30824;SDS011;17550;45.486;12.222;2023-05-16T09:34:03;6.70;;;4.18;;
30824;SDS011;17550;45.486;12.222;2023-05-16T09:36:32;6.47;;;4.35;;
30824;SDS011;17550;45.486;12.222;2023-05-16T09:38:59;7.85;;;3.67;;
30824;SDS011;17550;45.486;12.222;2023-05-16T09:41:25;7.72;;;4.85;;
30824;SDS011;17550;45.486;12.222;2023-05-16T09:43:51;8.18;;;4.55;;
30824;SDS011;17550;45.486;12.222;2023-05-16T09:46:17;7.70;;;4.00;;
30824;SDS011;17550;45.486;12.222;2023-05-16T09:48:44;9.88;;;4.32;;
30824;SDS011;17550;45.486;12.222;2023-05-16T09:51:11;10.80;;;4.50;;
30824;SDS011;17550;45.486;12.222;2023-05-16T09:53:37;9.70;;;4.40;;
30824;SDS011;17550;45.486;12.222;2023-05-16T09:58:34;7.63;;;4.70;;
30824;SDS011;17550;45.486;12.222;2023-05-16T10:01:01;9.80;;;6.85;;
30824;SDS011;17550;45.486;12.222;2023-05-16T10:03:28;8.30;;;5.13;;
30824;SDS011;17550;45.486;12.222;2023-05-16T10:05:54;10.20;;;5.88;;
30824;SDS011;17550;45.486;12.222;2023-05-16T10:08:20;6.68;;;4.80;;
30824;SDS011;17550;45.486;12.222;2023-05-16T10:10:49;7.97;;;5.15;;
30824;SDS011;17550;45.486;12.222;2023-05-16T10:13:18;8.52;;;5.45;;
30824;SDS011;17550;45.486;12.222;2023-05-16T10:15:49;9.60;;;5.30;;
30824;SDS011;17550;45.486;12.222;2023-05-16T10:18:19;14.25;;;6.57;;
30824;SDS011;17550;45.486;12.222;2023-05-16T10:20:47;8.60;;;6.10;;
30824;SDS011;17550;45.486;12.222;2023-05-16T10:23:18;9.32;;;5.70;;
30824;SDS011;17550;45.486;12.222;2023-05-16T10:25:45;9.20;;;5.68;;
30824;SDS011;17550;45.486;12.222;2023-05-16T10:28:12;12.25;;;6.53;;
30824;SDS011;17550;45.486;12.222;2023-05-16T10:30:40;11.15;;;5.85;;
30824;SDS011;17550;45.486;12.222;2023-05-16T10:33:09;12.55;;;6.75;;
30824;SDS011;17550;45.486;12.222;2023-05-16T10:38:07;9.07;;;6.30;;
30824;SDS011;17550;45.486;12.222;2023-05-16T10:40:34;14.27;;;6.22;;
30824;SDS011;17550;45.486;12.222;2023-05-16T10:43:05;14.48;;;6.28;;
30824;SDS011;17550;45.486;12.222;2023-05-16T10:45:33;11.32;;;5.60;;
30824;SDS011;17550;45.486;12.222;2023-05-16T10:48:08;11.45;;;5.90;;
30824;SDS011;17550;45.486;12.222;2023-05-16T10:50:37;8.52;;;6.15;;
30824;SDS011;17550;45.486;12.222;2023-05-16T10:53:21;9.43;;;5.95;;
30824;SDS011;17550;45.486;12.222;2023-05-16T11:06:31;7.22;;;5.00;;
30824;SDS011;17550;45.486;12.222;2023-05-16T11:09:07;8.07;;;5.35;;
30824;SDS011;17550;45.486;12.222;2023-05-16T11:11:37;8.88;;;4.78;;
30824;SDS011;17550;45.486;12.222;2023-05-16T11:14:04;7.72;;;4.18;;
30824;SDS011;17550;45.486;12.222;2023-05-16T11:16:30;7.10;;;3.88;;
30824;SDS011;17550;45.486;12.222;2023-05-16T11:19:05;7.85;;;3.83;;
30824;SDS011;17550;45.486;12.222;2023-05-16T11:24:35;5.75;;;3.28;;
30824;SDS011;17550;45.486;12.222;2023-05-16T11:27:03;7.50;;;3.13;;
30824;SDS011;17550;45.486;12.222;2023-05-16T11:29:35;4.97;;;3.40;;
30824;SDS011;17550;45.486;12.222;2023-05-16T11:32:04;4.80;;;3.30;;
30824;SDS011;17550;45.486;12.222;2023-05-16T11:34:30;6.40;;;3.45;;
30824;SDS011;17550;45.486;12.222;2023-05-16T11:36:59;8.52;;;3.60;;
30824;SDS011;17550;45.486;12.222;2023-05-16T11:39:26;6.78;;;4.00;;
30824;SDS011;17550;45.486;12.222;2023-05-16T11:41:54;10.35;;;3.90;;
30824;SDS011;17550;45.486;12.222;2023-05-16T11:44:20;13.02;;;4.53;;
30824;SDS011;17550;45.486;12.222;2023-05-16T11:46:48;8.88;;;3.42;;
30824;SDS011;17550;45.486;12.222;2023-05-16T11:49:14;7.57;;;3.10;;
30824;SDS011;17550;45.486;12.222;2023-05-16T11:51:41;7.82;;;3.20;;
30824;SDS011;17550;45.486;12.222;2023-05-16T11:54:10;7.00;;;3.25;;
30824;SDS011;17550;45.486;12.222;2023-05-16T11:56:38;6.07;;;2.78;;
30824;SDS011;17550;45.486;12.222;2023-05-16T11:59:07;4.75;;;2.00;;
30824;SDS011;17550;45.486;12.222;2023-05-16T12:01:34;4.53;;;1.70;;
30824;SDS011;17550;45.486;12.222;2023-05-16T12:04:06;3.55;;;1.50;;
30824;SDS011;17550;45.486;12.222;2023-05-16T12:06:33;4.95;;;2.78;;
30824;SDS011;17550;45.486;12.222;2023-05-16T12:08:59;4.90;;;2.42;;
30824;SDS011;17550;45.486;12.222;2023-05-16T12:11:30;4.13;;;1.35;;
30824;SDS011;17550;45.486;12.222;2023-05-16T12:13:56;3.08;;;1.13;;
30824;SDS011;17550;45.486;12.222;2023-05-16T12:16:21;2.17;;;1.20;;
30824;SDS011;17550;45.486;12.222;2023-05-16T12:18:47;4.50;;;1.17;;
30824;SDS011;17550;45.486;12.222;2023-05-16T12:21:13;5.72;;;1.88;;
30824;SDS011;17550;45.486;12.222;2023-05-16T12:23:40;6.90;;;1.00;;
30824;SDS011;17550;45.486;12.222;2023-05-16T12:26:07;7.35;;;1.05;;
30824;SDS011;17550;45.486;12.222;2023-05-16T12:28:33;2.95;;;1.15;;
30824;SDS011;17550;45.486;12.222;2023-05-16T12:31:03;1.67;;;1.00;;
30824;SDS011;17550;45.486;12.222;2023-05-16T12:36:01;4.35;;;0.90;;
30824;SDS011;17550;45.486;12.222;2023-05-16T12:38:28;3.80;;;1.00;;
30824;SDS011;17550;45.486;12.222;2023-05-16T12:40:57;4.88;;;1.05;;
30824;SDS011;17550;45.486;12.222;2023-05-16T12:43:23;2.38;;;0.90;;
30824;SDS011;17550;45.486;12.222;2023-05-16T12:45:53;1.75;;;0.80;;
30824;SDS011;17550;45.486;12.222;2023-05-16T12:48:21;5.43;;;1.17;;
30824;SDS011;17550;45.486;12.222;2023-05-16T12:50:48;1.63;;;0.93;;
30824;SDS011;17550;45.486;12.222;2023-05-16T12:53:15;1.63;;;0.85;;
30824;SDS011;17550;45.486;12.222;2023-05-16T12:55:42;2.38;;;0.90;;
30824;SDS011;17550;45.486;12.222;2023-05-16T12:58:09;2.20;;;0.80;;
30824;SDS011;17550;45.486;12.222;2023-05-16T13:00:35;4.65;;;0.82;;
30824;SDS011;17550;45.486;12.222;2023-05-16T13:03:02;9.05;;;0.80;;
30824;SDS011;17550;45.486;12.222;2023-05-16T13:05:28;1.20;;;0.68;;
30824;SDS011;17550;45.486;12.222;2023-05-16T13:07:54;7.60;;;1.20;;
30824;SDS011;17550;45.486;12.222;2023-05-16T13:10:20;1.75;;;0.60;;
30824;SDS011;17550;45.486;12.222;2023-05-16T13:12:46;4.53;;;0.60;;
30824;SDS011;17550;45.486;12.222;2023-05-16T13:15:12;3.30;;;0.50;;
30824;SDS011;17550;45.486;12.222;2023-05-16T13:17:41;1.48;;;0.43;;
30824;SDS011;17550;45.486;12.222;2023-05-16T13:20:12;5.43;;;0.80;;
30824;SDS011;17550;45.486;12.222;2023-05-16T13:22:39;4.50;;;0.50;;
30824;SDS011;17550;45.486;12.222;2023-05-16T13:25:06;1.65;;;0.57;;
30824;SDS011;17550;45.486;12.222;2023-05-16T13:27:32;2.78;;;1.25;;
30824;SDS011;17550;45.486;12.222;2023-05-16T13:29:58;3.60;;;0.60;;
30824;SDS011;17550;45.486;12.222;2023-05-16T13:32:25;2.45;;;0.50;;
30824;SDS011;17550;45.486;12.222;2023-05-16T13:34:51;1.50;;;0.57;;
30824;SDS011;17550;45.486;12.222;2023-05-16T13:37:17;1.85;;;0.60;;
30824;SDS011;17550;45.486;12.222;2023-05-16T13:39:43;5.30;;;0.50;;
30824;SDS011;17550;45.486;12.222;2023-05-16T13:42:08;2.42;;;0.40;;
30824;SDS011;17550;45.486;12.222;2023-05-16T13:44:34;3.85;;;0.65;;
30824;SDS011;17550;45.486;12.222;2023-05-16T13:47:00;1.48;;;0.50;;
30824;SDS011;17550;45.486;12.222;2023-05-16T13:49:26;1.27;;;0.52;;
30824;SDS011;17550;45.486;12.222;2023-05-16T13:51:52;4.82;;;0.70;;
30824;SDS011;17550;45.486;12.222;2023-05-16T13:54:18;1.65;;;0.70;;
30824;SDS011;17550;45.486;12.222;2023-05-16T13:56:44;2.60;;;0.90;;
30824;SDS011;17550;45.486;12.222;2023-05-16T13:59:10;2.15;;;0.68;;
30824;SDS011;17550;45.486;12.222;2023-05-16T14:01:35;5.35;;;0.95;;
30824;SDS011;17550;45.486;12.222;2023-05-16T14:04:01;6.40;;;1.13;;
30824;SDS011;17550;45.486;12.222;2023-05-16T14:06:27;3.92;;;1.10;;
30824;SDS011;17550;45.486;12.222;2023-05-16T14:08:53;3.72;;;0.85;;
30824;SDS011;17550;45.486;12.222;2023-05-16T14:11:19;2.65;;;0.80;;
30824;SDS011;17550;45.486;12.222;2023-05-16T14:13:47;6.15;;;1.10;;
30824;SDS011;17550;45.486;12.222;2023-05-16T14:16:13;5.30;;;0.50;;
30824;SDS011;17550;45.486;12.222;2023-05-16T14:18:39;4.13;;;0.80;;
30824;SDS011;17550;45.486;12.222;2023-05-16T14:21:05;2.80;;;0.95;;
30824;SDS011;17550;45.486;12.222;2023-05-16T14:23:30;2.22;;;0.80;;
30824;SDS011;17550;45.486;12.222;2023-05-16T14:25:56;3.17;;;0.73;;
30824;SDS011;17550;45.486;12.222;2023-05-16T14:28:22;3.25;;;1.00;;
30824;SDS011;17550;45.486;12.222;2023-05-16T14:30:47;2.78;;;0.90;;
30824;SDS011;17550;45.486;12.222;2023-05-16T14:33:13;5.18;;;1.08;;
30824;SDS011;17550;45.486;12.222;2023-05-16T14:35:39;4.90;;;0.85;;
30824;SDS011;17550;45.486;12.222;2023-05-16T14:38:05;6.88;;;1.13;;
30824;SDS011;17550;45.486;12.222;2023-05-16T14:40:31;2.78;;;0.90;;
30824;SDS011;17550;45.486;12.222;2023-05-16T14:42:58;3.35;;;1.10;;
30824;SDS011;17550;45.486;12.222;2023-05-16T14:45:24;4.30;;;0.95;;
30824;SDS011;17550;45.486;12.222;2023-05-16T14:47:50;4.97;;;1.10;;
30824;SDS011;17550;45.486;12.222;2023-05-16T14:50:16;1.65;;;0.73;;
30824;SDS011;17550;45.486;12.222;2023-05-16T14:52:42;3.85;;;1.00;;
30824;SDS011;17550;45.486;12.222;2023-05-16T14:55:08;5.03;;;1.00;;
30824;SDS011;17550;45.486;12.222;2023-05-16T14:57:35;4.80;;;0.80;;
30824;SDS011;17550;45.486;12.222;2023-05-16T15:00:01;5.85;;;1.13;;
30824;SDS011;17550;45.486;12.222;2023-05-16T15:02:26;3.08;;;1.00;;
30824;SDS011;17550;45.486;12.222;2023-05-16T15:04:52;2.72;;;0.80;;
30824;SDS011;17550;45.486;12.222;2023-05-16T15:07:18;2.03;;;0.73;;